Time;durP1;ratioP1;P1;durP2;ratioP2;P2;SDS_P1;SDS_P2;PMS_P1;PMS_P2;Temp;Humidity;BMP_temperature;BMP_pressure;BME280_temperature;BME280_humidity;BME280_pressure;Samples;Min_cycle;Max_cycle;Signal;HPM_P1;HPM_P2
2023/03/29 04:00:54;;;;;;;2.10;0.98;;;3.50;99.90;;;;;;5612379;23;20329;-68
2023/03/29 04:03:21;;;;;;;0.50;0.50;;;3.40;99.90;;;;;;4909225;29;20210;-67
2023/03/29 04:05:48;;;;;;;0.40;0.40;;;3.50;99.90;;;;;;4909919;29;20210;-68
2023/03/29 04:08:15;;;;;;;4.60;2.67;;;3.50;99.90;;;;;;4910910;29;20210;-69
2023/03/29 04:10:43;;;;;;;0.95;0.95;;;3.50;99.90;;;;;;4909969;29;20233;-67
2023/03/29 04:13:10;;;;;;;1.92;1.55;;;3.50;99.90;;;;;;4892009;29;20215;-68
2023/03/29 04:15:38;;;;;;;0.68;0.68;;;3.50;99.90;;;;;;4892947;29;20631;-68
2023/03/29 04:18:06;;;;;;;0.85;0.85;;;3.50;99.90;;;;;;4894161;29;20226;-68
2023/03/29 04:20:33;;;;;;;0.73;0.73;;;3.50;99.90;;;;;;4890476;29;20298;-68
2023/03/29 04:22:59;;;;;;;1.48;1.48;;;3.50;99.90;;;;;;4895611;29;20203;-69
2023/03/29 04:25:26;;;;;;;0.38;0.38;;;3.60;99.90;;;;;;4889131;29;20695;-70
2023/03/29 04:27:53;;;;;;;0.60;0.60;;;3.60;99.90;;;;;;4895839;29;20227;-70
2023/03/29 04:30:20;;;;;;;1.02;1.02;;;3.60;99.90;;;;;;4895018;29;20215;-69
2023/03/29 04:32:46;;;;;;;0.63;0.60;;;3.60;99.90;;;;;;4898168;29;20216;-69
2023/03/29 04:35:14;;;;;;;0.65;0.65;;;3.60;99.90;;;;;;4896753;29;20330;-69
2023/03/29 04:37:41;;;;;;;2.70;1.63;;;3.60;99.90;;;;;;4893205;29;20215;-68
2023/03/29 04:40:13;;;;;;;3.17;2.15;;;3.70;99.90;;;;;;4889204;29;20235;-69
2023/03/29 04:42:42;;;;;;;0.75;0.75;;;3.70;99.90;;;;;;4891804;29;20298;-69
2023/03/29 04:45:09;;;;;;;4.07;3.90;;;3.70;99.90;;;;;;4880384;29;20212;-70
2023/03/29 04:47:38;;;;;;;0.70;0.70;;;3.70;99.90;;;;;;4898776;29;20214;-69
2023/03/29 04:50:06;;;;;;;2.25;1.30;;;3.70;99.90;;;;;;4897297;29;20211;-69
2023/03/29 04:52:35;;;;;;;0.47;0.47;;;3.70;99.90;;;;;;4897798;29;20290;-70
2023/03/29 04:55:02;;;;;;;1.75;1.65;;;3.70;99.90;;;;;;4892536;29;20207;-68
2023/03/29 04:57:29;;;;;;;0.90;0.90;;;3.70;99.90;;;;;;4894624;29;20223;-69
2023/03/29 04:59:56;;;;;;;1.10;1.00;;;3.70;99.90;;;;;;4895446;29;20310;-69
2023/03/29 05:02:23;;;;;;;0.70;0.70;;;3.70;99.90;;;;;;4897851;29;20273;-69
2023/03/29 05:04:50;;;;;;;0.98;0.98;;;3.80;99.90;;;;;;4899507;29;20393;-68
2023/03/29 05:07:17;;;;;;;1.02;1.02;;;3.80;99.90;;;;;;4896936;29;20215;-68
2023/03/29 05:09:46;;;;;;;2.40;1.73;;;3.80;99.90;;;;;;4895679;29;20207;-69
2023/03/29 05:12:12;;;;;;;9.40;1.58;;;3.90;99.90;;;;;;4898081;29;20231;-70
2023/03/29 05:14:39;;;;;;;2.03;1.92;;;3.90;99.90;;;;;;4889548;29;20215;-69
2023/03/29 05:17:06;;;;;;;4.75;2.25;;;4.00;99.90;;;;;;4897297;29;20290;-69
2023/03/29 05:19:35;;;;;;;2.70;2.60;;;4.00;99.90;;;;;;4895556;29;20310;-69
2023/03/29 05:22:01;;;;;;;1.35;1.35;;;4.10;99.90;;;;;;4896038;29;20231;-70
2023/03/29 05:24:28;;;;;;;21.83;3.40;;;4.20;99.90;;;;;;4891623;29;20438;-68
2023/03/29 05:26:56;;;;;;;0.40;0.40;;;4.20;99.90;;;;;;4899795;29;20337;-69
2023/03/29 05:29:23;;;;;;;0.93;0.93;;;4.20;99.90;;;;;;4898545;29;20222;-70
2023/03/29 05:31:51;;;;;;;0.70;0.70;;;4.30;99.90;;;;;;4894312;29;20717;-69
2023/03/29 05:34:17;;;;;;;0.82;0.82;;;4.30;99.90;;;;;;4892727;29;20645;-69
2023/03/29 05:36:45;;;;;;;1.20;1.17;;;4.30;99.90;;;;;;4895015;29;20584;-69
2023/03/29 05:39:12;;;;;;;0.70;0.70;;;4.40;99.90;;;;;;4894877;29;20275;-69
2023/03/29 05:41:40;;;;;;;3.40;2.13;;;4.40;99.90;;;;;;4887766;29;20313;-70
2023/03/29 05:44:08;;;;;;;0.38;0.38;;;4.40;99.90;;;;;;4896445;29;20215;-68
2023/03/29 05:46:35;;;;;;;1.70;1.60;;;4.50;99.90;;;;;;4898585;29;20214;-68
2023/03/29 05:49:02;;;;;;;4.88;2.17;;;4.50;99.90;;;;;;4891842;29;20215;-68
2023/03/29 05:51:28;;;;;;;0.98;0.95;;;4.50;99.90;;;;;;4889409;29;20287;-70
2023/03/29 05:53:55;;;;;;;1.60;1.20;;;4.60;99.90;;;;;;4902625;29;20204;-68
2023/03/29 05:56:22;;;;;;;0.43;0.43;;;4.60;99.90;;;;;;4899385;29;20388;-69
2023/03/29 05:58:49;;;;;;;1.35;0.85;;;4.60;99.90;;;;;;4895854;29;20222;-68
2023/03/29 06:01:17;;;;;;;1.05;1.05;;;4.70;99.90;;;;;;4894648;29;20339;-69
2023/03/29 06:03:46;;;;;;;0.73;0.73;;;4.70;99.90;;;;;;4890132;29;20244;-69
2023/03/29 06:06:15;;;;;;;16.92;1.23;;;4.70;99.90;;;;;;4893222;29;20295;-69
2023/03/29 06:08:42;;;;;;;0.93;0.93;;;4.80;99.90;;;;;;4895366;29;20207;-69
2023/03/29 06:11:10;;;;;;;0.93;0.85;;;4.80;99.90;;;;;;4887403;29;20243;-70
2023/03/29 06:13:37;;;;;;;6.70;1.73;;;4.80;99.90;;;;;;4901371;29;20241;-69
2023/03/29 06:16:04;;;;;;;1.42;1.20;;;4.90;99.90;;;;;;4901489;29;20208;-69
2023/03/29 06:18:33;;;;;;;0.63;0.47;;;4.90;99.90;;;;;;4892473;29;20222;-69
2023/03/29 06:21:01;;;;;;;1.60;1.20;;;5.00;99.90;;;;;;4886029;29;20238;-69
2023/03/29 06:23:29;;;;;;;3.00;2.78;;;5.00;99.90;;;;;;4894613;29;20215;-69
2023/03/29 06:25:56;;;;;;;1.52;1.00;;;5.10;99.90;;;;;;4885579;29;20558;-70
2023/03/29 06:28:23;;;;;;;5.78;2.30;;;5.10;99.90;;;;;;4894517;29;20214;-70
2023/03/29 06:30:52;;;;;;;3.80;1.25;;;5.20;99.90;;;;;;4894012;29;20318;-69
2023/03/29 06:33:19;;;;;;;1.10;1.10;;;5.20;99.90;;;;;;4890803;29;20603;-70
2023/03/29 06:35:48;;;;;;;1.45;1.45;;;5.30;99.90;;;;;;4886069;29;20215;-70
2023/03/29 06:38:16;;;;;;;1.02;1.02;;;5.40;99.90;;;;;;4898132;29;20219;-70
2023/03/29 06:40:43;;;;;;;2.25;1.15;;;5.40;99.90;;;;;;4894326;29;20284;-69
2023/03/29 06:43:10;;;;;;;1.85;1.65;;;5.50;99.90;;;;;;4900911;29;20294;-71
2023/03/29 06:45:38;;;;;;;1.70;0.80;;;5.50;99.90;;;;;;4900130;29;20218;-69
2023/03/29 06:48:06;;;;;;;1.27;1.25;;;5.60;99.90;;;;;;4896657;29;20290;-70
2023/03/29 06:50:33;;;;;;;0.70;0.70;;;5.60;99.90;;;;;;4898701;29;20321;-70
2023/03/29 06:53:01;;;;;;;1.30;1.20;;;5.60;99.90;;;;;;4894470;29;20208;-70
2023/03/29 06:55:28;;;;;;;2.55;1.15;;;5.70;99.90;;;;;;4886739;29;20207;-70
2023/03/29 06:57:55;;;;;;;2.28;1.75;;;5.80;99.90;;;;;;4894826;29;20211;-69
2023/03/29 07:00:27;;;;;;;1.25;1.20;;;5.80;99.90;;;;;;4888674;29;20681;-70
2023/03/29 07:02:54;;;;;;;1.17;1.17;;;5.80;99.90;;;;;;4893478;29;20203;-70
2023/03/29 07:05:22;;;;;;;0.73;0.73;;;5.80;99.90;;;;;;4895186;29;20215;-70
2023/03/29 07:07:59;;;;;;;1.23;1.13;;;5.90;99.90;;;;;;4893164;29;20203;-69
2023/03/29 07:10:31;;;;;;;0.63;0.63;;;5.90;99.90;;;;;;4899348;29;20211;-69
2023/03/29 07:12:58;;;;;;;0.30;0.30;;;6.00;99.90;;;;;;4885364;29;20665;-69
2023/03/29 07:15:25;;;;;;;0.85;0.85;;;6.00;99.90;;;;;;4884172;29;20214;-70
2023/03/29 07:17:51;;;;;;;1.75;1.75;;;6.00;99.90;;;;;;4896347;29;20218;-69
2023/03/29 07:20:18;;;;;;;2.30;2.20;;;6.10;99.90;;;;;;4898233;29;20230;-69
2023/03/29 07:22:47;;;;;;;1.63;1.60;;;6.10;99.90;;;;;;4897213;29;20203;-70
2023/03/29 07:25:16;;;;;;;0.75;0.75;;;6.10;99.90;;;;;;4887851;29;20274;-69
2023/03/29 07:27:45;;;;;;;1.17;1.08;;;6.10;99.90;;;;;;4890324;29;20223;-69
2023/03/29 07:30:15;;;;;;;1.98;1.80;;;6.20;99.90;;;;;;4900992;29;20214;-68
2023/03/29 07:32:44;;;;;;;0.57;0.57;;;6.20;99.90;;;;;;4892410;29;20239;-69
2023/03/29 07:35:12;;;;;;;0.95;0.95;;;6.30;99.90;;;;;;4897613;29;20215;-69
2023/03/29 07:37:41;;;;;;;1.75;1.75;;;6.40;99.90;;;;;;4896114;29;20227;-69
2023/03/29 07:40:14;;;;;;;1.23;1.13;;;6.50;99.90;;;;;;4905751;29;20258;-69
2023/03/29 07:42:42;;;;;;;1.15;0.63;;;6.50;99.90;;;;;;4903271;29;20218;-68
2023/03/29 07:45:13;;;;;;;1.90;1.90;;;6.60;99.90;;;;;;4901682;29;20203;-69
2023/03/29 07:47:40;;;;;;;2.00;1.90;;;6.60;99.90;;;;;;4892786;29;20299;-68
2023/03/29 07:50:09;;;;;;;3.85;1.83;;;6.70;99.90;;;;;;4885333;29;20227;-69
2023/03/29 07:52:37;;;;;;;1.45;1.35;;;6.80;99.90;;;;;;4893437;29;20315;-68
2023/03/29 07:55:04;;;;;;;4.22;1.92;;;6.90;99.90;;;;;;4897482;29;20207;-68
2023/03/29 07:57:31;;;;;;;1.05;1.05;;;7.00;99.90;;;;;;4885904;29;20578;-69
2023/03/29 07:59:58;;;;;;;1.05;1.05;;;7.20;99.90;;;;;;4895341;29;20227;-68
2023/03/29 08:02:27;;;;;;;1.27;1.27;;;7.20;99.90;;;;;;4893003;29;20247;-67
2023/03/29 08:04:55;;;;;;;1.42;1.42;;;7.40;99.90;;;;;;4890884;29;20204;-67
2023/03/29 08:07:23;;;;;;;1.35;1.25;;;7.50;99.90;;;;;;4898051;29;20222;-69
2023/03/29 08:09:50;;;;;;;2.92;2.83;;;7.60;99.90;;;;;;4901991;29;20302;-68
2023/03/29 08:12:16;;;;;;;0.90;0.90;;;7.70;99.90;;;;;;4889243;29;20231;-67
2023/03/29 08:14:43;;;;;;;2.60;1.38;;;7.70;99.90;;;;;;4891243;29;20246;-66
2023/03/29 08:17:10;;;;;;;11.73;5.93;;;7.80;99.90;;;;;;4896103;29;20214;-67
2023/03/29 08:19:38;;;;;;;25.80;11.10;;;7.80;99.90;;;;;;4885509;29;20315;-66
2023/03/29 08:22:05;;;;;;;6.47;5.28;;;7.80;99.90;;;;;;4877207;29;20232;-65
2023/03/29 08:24:31;;;;;;;3.20;2.83;;;7.80;99.90;;;;;;4891433;29;20742;-67
2023/03/29 08:26:58;;;;;;;3.35;3.05;;;7.70;99.90;;;;;;4898263;29;20214;-67
2023/03/29 08:29:25;;;;;;;9.70;4.10;;;7.70;99.90;;;;;;4898048;29;20219;-66
2023/03/29 08:31:53;;;;;;;7.20;4.22;;;7.80;99.90;;;;;;4898147;29;20219;-66
2023/03/29 08:34:20;;;;;;;7.70;4.55;;;8.00;99.90;;;;;;4889707;29;20574;-68
2023/03/29 08:36:48;;;;;;;4.03;2.70;;;8.00;99.90;;;;;;4894285;29;20206;-67
2023/03/29 08:39:14;;;;;;;1.02;1.02;;;8.10;99.90;;;;;;4892416;29;20219;-67
2023/03/29 08:41:53;;;;;;;3.03;2.67;;;8.10;99.90;;;;;;4883079;29;20231;-66
2023/03/29 08:44:37;;;;;;;2.42;2.35;;;8.20;99.90;;;;;;4894044;29;20215;-66
2023/03/29 08:47:14;;;;;;;5.20;2.67;;;8.20;99.90;;;;;;4886217;29;20262;-66
2023/03/29 08:49:44;;;;;;;2.20;2.10;;;8.10;99.90;;;;;;4893909;29;20270;-67
2023/03/29 08:52:21;;;;;;;2.65;2.45;;;8.10;99.90;;;;;;4893678;29;20228;-67
2023/03/29 08:54:53;;;;;;;1.60;1.50;;;8.20;99.90;;;;;;4886717;29;20203;-66
2023/03/29 08:57:24;;;;;;;1.77;1.70;;;8.30;99.90;;;;;;4897796;29;20211;-65
2023/03/29 08:59:53;;;;;;;2.10;1.42;;;8.30;99.90;;;;;;4895968;29;20408;-66
2023/03/29 09:02:23;;;;;;;1.92;1.83;;;8.40;99.90;;;;;;4892651;29;20655;-65
2023/03/29 09:04:52;;;;;;;2.40;2.17;;;8.40;99.90;;;;;;4899320;29;20557;-67
2023/03/29 09:07:20;;;;;;;1.40;1.30;;;8.50;99.90;;;;;;4898366;29;20231;-66
2023/03/29 09:09:47;;;;;;;1.48;1.48;;;8.50;99.90;;;;;;4896012;29;20657;-66
2023/03/29 09:12:25;;;;;;;1.17;1.17;;;8.50;99.90;;;;;;4897718;29;20230;-66
2023/03/29 09:15:03;;;;;;;2.60;1.52;;;8.50;99.90;;;;;;4894714;29;20271;-66
2023/03/29 09:17:38;;;;;;;1.85;1.48;;;8.70;99.90;;;;;;4895764;29;20211;-65
2023/03/29 09:20:17;;;;;;;1.85;1.75;;;8.90;99.90;;;;;;4889818;29;20219;-67
2023/03/29 09:22:56;;;;;;;1.58;1.48;;;9.10;99.90;;;;;;4882165;29;20224;-67
2023/03/29 09:25:29;;;;;;;2.97;2.75;;;9.20;99.90;;;;;;4895449;29;20598;-67
2023/03/29 09:28:01;;;;;;;2.95;2.85;;;9.30;99.90;;;;;;4894333;29;20215;-67
2023/03/29 09:30:32;;;;;;;3.17;2.88;;;9.40;99.90;;;;;;4891484;29;20215;-68
2023/03/29 09:33:03;;;;;;;3.40;3.10;;;9.60;99.90;;;;;;4890983;29;20207;-67
2023/03/29 09:35:34;;;;;;;2.63;1.90;;;9.60;99.90;;;;;;4895492;29;20474;-67
2023/03/29 09:38:04;;;;;;;1.40;1.30;;;9.60;99.90;;;;;;4891341;29;20468;-67
2023/03/29 09:40:38;;;;;;;3.17;2.97;;;9.60;99.90;;;;;;4894960;29;20238;-66
2023/03/29 09:43:10;;;;;;;1.20;1.20;;;9.70;99.90;;;;;;4892913;29;20480;-68
2023/03/29 09:45:37;;;;;;;10.77;1.90;;;9.70;99.90;;;;;;4891006;29;20482;-67
2023/03/29 09:48:09;;;;;;;2.33;2.13;;;9.70;99.90;;;;;;4891022;29;20952;-67
2023/03/29 09:50:38;;;;;;;3.25;2.83;;;9.70;99.90;;;;;;4894258;29;20238;-66
2023/03/29 09:53:07;;;;;;;4.60;1.38;;;9.70;99.90;;;;;;4896283;29;20215;-68
2023/03/29 09:55:36;;;;;;;2.40;2.33;;;9.80;99.90;;;;;;4897638;29;20211;-68
2023/03/29 09:58:11;;;;;;;2.17;1.93;;;10.00;99.90;;;;;;4890377;29;20562;-68
2023/03/29 10:00:39;;;;;;;2.03;1.83;;;10.10;99.90;;;;;;4900704;29;20505;-67
2023/03/29 10:03:05;;;;;;;4.25;2.47;;;10.10;99.90;;;;;;4896091;29;20487;-66
2023/03/29 10:05:35;;;;;;;1.20;1.20;;;10.10;99.90;;;;;;4893656;29;20238;-68
2023/03/29 10:08:21;;;;;;;1.90;1.80;;;10.10;99.90;;;;;;4889804;29;20208;-67
2023/03/29 10:10:48;;;;;;;8.43;5.03;;;10.20;99.90;;;;;;4889615;29;20498;-66
2023/03/29 10:13:20;;;;;;;3.50;2.47;;;10.20;99.90;;;;;;4891545;29;20957;-67
2023/03/29 10:16:07;;;;;;;3.20;2.17;;;10.40;99.90;;;;;;4894053;29;20477;-67
2023/03/29 10:18:38;;;;;;;2.17;2.07;;;10.50;99.90;;;;;;4892782;29;20558;-67
2023/03/29 10:21:06;;;;;;;2.63;2.40;;;10.50;99.90;;;;;;4890806;29;20495;-68
2023/03/29 10:23:36;;;;;;;1.60;1.50;;;10.60;99.90;;;;;;4894349;29;20475;-67
2023/03/29 10:26:06;;;;;;;1.80;1.80;;;10.80;99.90;;;;;;4893601;29;20478;-67
2023/03/29 10:28:36;;;;;;;1.90;1.80;;;10.90;99.90;;;;;;4892861;29;20476;-67
2023/03/29 10:31:06;;;;;;;2.73;2.60;;;11.00;99.90;;;;;;4889216;29;20484;-67
2023/03/29 10:33:35;;;;;;;2.57;1.47;;;11.10;99.90;;;;;;4891310;29;20487;-67
2023/03/29 10:36:06;;;;;;;3.50;2.60;;;11.10;99.90;;;;;;4887291;29;20474;-67
2023/03/29 10:38:36;;;;;;;2.23;2.13;;;11.00;99.90;;;;;;4894857;29;20471;-68
2023/03/29 10:41:06;;;;;;;1.37;1.27;;;10.90;99.90;;;;;;4890151;29;20491;-67
2023/03/29 10:43:38;;;;;;;8.43;3.90;;;10.90;99.90;;;;;;4893342;29;20475;-67
2023/03/29 10:46:11;;;;;;;9.77;6.27;;;10.70;99.90;;;;;;4895206;29;20491;-67
2023/03/29 10:48:39;;;;;;;3.87;2.60;;;10.70;99.90;;;;;;4891067;29;20475;-67
2023/03/29 10:51:07;;;;;;;2.30;2.10;;;10.70;99.90;;;;;;4894447;29;20988;-68
2023/03/29 10:53:37;;;;;;;3.70;2.60;;;10.70;99.90;;;;;;4894594;29;20507;-66
2023/03/29 10:56:28;;;;;;;6.40;2.80;;;10.80;99.90;;;;;;4893984;29;20824;-68
2023/03/29 10:59:18;;;;;;;2.43;2.33;;;10.90;99.90;;;;;;4892132;29;20470;-67
2023/03/29 11:01:57;;;;;;;1.70;1.70;;;10.80;99.90;;;;;;4893231;29;20507;-67
2023/03/29 11:04:32;;;;;;;3.23;3.03;;;10.80;99.90;;;;;;4889707;29;20475;-68
2023/03/29 11:07:21;;;;;;;9.40;4.93;;;10.70;99.90;;;;;;4888416;29;20507;-67
2023/03/29 11:09:55;;;;;;;2.23;2.13;;;10.70;99.90;;;;;;4892150;29;20598;-67
2023/03/29 11:12:27;;;;;;;3.03;2.83;;;10.80;99.90;;;;;;4887530;29;20577;-67
2023/03/29 11:15:11;;;;;;;2.10;2.00;;;10.80;99.90;;;;;;4884091;29;20472;-68
2023/03/29 11:17:49;;;;;;;2.33;1.73;;;10.80;99.90;;;;;;4886662;29;20474;-67
2023/03/29 11:20:32;;;;;;;2.00;1.93;;;10.80;99.90;;;;;;4893478;29;20470;-67
2023/03/29 11:23:08;;;;;;;3.77;2.63;;;10.90;99.90;;;;;;4886746;29;20969;-67
2023/03/29 11:25:46;;;;;;;2.57;2.37;;;10.90;99.90;;;;;;4885596;29;20485;-67
2023/03/29 11:28:19;;;;;;;2.20;1.77;;;10.90;99.90;;;;;;4892791;29;20471;-66
2023/03/29 11:30:51;;;;;;;1.80;1.70;;;10.90;99.90;;;;;;4886117;29;20498;-66
2023/03/29 11:33:32;;;;;;;1.53;1.33;;;10.90;99.90;;;;;;4882601;29;20996;-67
2023/03/29 11:36:09;;;;;;;3.13;2.97;;;10.90;99.90;;;;;;4894277;29;20558;-67
2023/03/29 11:38:42;;;;;;;1.30;1.30;;;11.00;99.90;;;;;;4894702;29;20471;-66
2023/03/29 11:41:16;;;;;;;2.10;1.90;;;11.20;99.90;;;;;;4893558;29;20491;-67
2023/03/29 11:43:46;;;;;;;4.50;4.23;;;11.30;99.90;;;;;;4892574;29;20474;-67
2023/03/29 11:46:17;;;;;;;4.47;2.47;;;11.50;99.90;;;;;;4895805;29;20629;-67
2023/03/29 11:48:49;;;;;;;1.33;1.23;;;11.50;99.90;;;;;;4893085;29;20475;-67
2023/03/29 11:51:22;;;;;;;2.30;2.10;;;11.50;99.90;;;;;;4892980;29;20580;-67
2023/03/29 11:54:01;;;;;;;1.07;1.07;;;11.30;99.90;;;;;;4894684;29;20543;-67
2023/03/29 11:56:35;;;;;;;0.90;0.90;;;11.40;99.90;;;;;;4893867;29;20510;-68
2023/03/29 11:59:10;;;;;;;1.63;1.63;;;11.40;99.90;;;;;;4892270;29;20477;-66
2023/03/29 12:01:41;;;;;;;1.50;1.40;;;11.20;99.90;;;;;;4900059;29;20691;-66
2023/03/29 12:04:14;;;;;;;2.40;2.20;;;11.20;99.90;;;;;;4890678;29;20482;-66
2023/03/29 12:06:47;;;;;;;2.00;1.90;;;11.20;99.90;;;;;;4889705;29;20474;-68
2023/03/29 12:09:27;;;;;;;2.20;2.20;;;11.20;99.90;;;;;;4886386;29;20578;-67
2023/03/29 12:12:02;;;;;;;2.07;1.37;;;11.30;99.90;;;;;;4883211;29;20495;-68
2023/03/29 12:14:38;;;;;;;1.27;1.27;;;11.30;99.90;;;;;;4889295;29;20476;-66
2023/03/29 12:17:11;;;;;;;1.43;1.33;;;11.40;99.90;;;;;;4894481;29;20482;-67
2023/03/29 12:19:46;;;;;;;4.27;2.10;;;11.50;99.90;;;;;;4887033;29;20585;-66
2023/03/29 12:22:13;;;;;;;11.23;2.23;;;11.70;99.90;;;;;;4897164;29;20495;-66
2023/03/29 12:24:42;;;;;;;1.80;1.80;;;11.70;99.90;;;;;;4892646;29;20482;-66
2023/03/29 12:27:22;;;;;;;2.73;2.10;;;11.80;99.90;;;;;;4888402;29;20556;-66
2023/03/29 12:30:14;;;;;;;2.00;1.90;;;11.80;99.90;;;;;;4890311;29;20984;-68
2023/03/29 12:32:53;;;;;;;2.37;2.27;;;11.80;99.90;;;;;;4887970;29;20495;-68
2023/03/29 12:35:27;;;;;;;2.70;2.50;;;11.80;99.90;;;;;;4892741;29;20467;-66
2023/03/29 12:38:04;;;;;;;2.00;1.90;;;11.90;99.90;;;;;;4896930;29;20467;-68
2023/03/29 12:40:40;;;;;;;2.30;2.20;;;11.90;99.90;;;;;;4896881;29;20478;-67
2023/03/29 12:43:15;;;;;;;2.20;2.10;;;11.90;99.90;;;;;;4892505;29;20574;-67
2023/03/29 12:45:47;;;;;;;1.60;1.60;;;12.00;99.90;;;;;;4894973;29;20475;-66
2023/03/29 12:48:17;;;;;;;2.43;2.30;;;12.10;99.90;;;;;;4895965;29;20466;-67
2023/03/29 12:50:48;;;;;;;1.63;1.20;;;12.20;99.90;;;;;;4893169;29;20657;-69
2023/03/29 12:53:19;;;;;;;1.90;1.90;;;12.10;99.90;;;;;;4897258;29;20466;-68
2023/03/29 12:55:54;;;;;;;1.70;1.70;;;12.20;99.90;;;;;;4893444;29;21109;-67
2023/03/29 12:58:26;;;;;;;2.20;1.40;;;12.20;99.90;;;;;;4897664;29;20481;-66
2023/03/29 13:01:03;;;;;;;2.70;2.43;;;12.10;99.90;;;;;;4895525;29;20514;-66
2023/03/29 13:03:41;;;;;;;1.77;1.77;;;12.20;99.90;;;;;;4897344;29;20459;-66
2023/03/29 13:06:11;;;;;;;1.80;1.80;;;12.10;99.90;;;;;;4888265;29;20573;-67
2023/03/29 13:08:41;;;;;;;2.83;2.63;;;12.10;99.90;;;;;;4898579;29;20499;-66
2023/03/29 13:11:12;;;;;;;2.73;2.63;;;12.10;99.90;;;;;;4901727;29;20972;-69
2023/03/29 13:13:42;;;;;;;3.03;2.83;;;12.10;99.90;;;;;;4895120;29;20463;-67
2023/03/29 13:16:12;;;;;;;2.13;2.03;;;12.10;99.90;;;;;;4891186;29;20471;-66
2023/03/29 13:18:57;;;;;;;3.47;1.83;;;12.00;99.90;;;;;;4886899;29;20981;-67
2023/03/29 13:21:32;;;;;;;3.33;3.10;;;12.10;99.90;;;;;;4896959;29;20909;-67
2023/03/29 13:24:06;;;;;;;2.37;2.27;;;12.10;99.90;;;;;;4899761;29;20494;-67
2023/03/29 13:26:45;;;;;;;4.50;2.13;;;12.10;99.90;;;;;;4891226;29;20482;-67
2023/03/29 13:29:41;;;;;;;1.83;1.73;;;12.30;99.90;;;;;;4902199;29;20471;-67
2023/03/29 13:32:24;;;;;;;1.70;1.70;;;12.30;99.90;;;;;;4893395;29;20487;-67
2023/03/29 13:34:56;;;;;;;3.20;2.90;;;12.10;99.90;;;;;;4894826;29;20506;-68
2023/03/29 13:37:35;;;;;;;2.57;2.37;;;12.10;99.90;;;;;;4896758;29;20506;-67
2023/03/29 13:40:04;;;;;;;3.63;2.77;;;12.10;99.90;;;;;;4888013;29;20471;-68
2023/03/29 13:42:40;;;;;;;5.73;2.10;;;12.20;99.90;;;;;;4897393;29;20629;-66
2023/03/29 13:45:16;;;;;;;2.23;1.80;;;12.30;99.90;;;;;;4894504;29;20992;-67
2023/03/29 13:47:45;;;;;;;2.20;2.10;;;12.40;99.90;;;;;;4895387;29;21073;-69
2023/03/29 13:50:16;;;;;;;3.83;2.03;;;12.50;99.90;;;;;;4896113;29;20891;-69
2023/03/29 13:52:50;;;;;;;2.50;1.60;;;12.50;99.90;;;;;;4888171;29;20902;-69
2023/03/29 13:55:23;;;;;;;4.80;1.90;;;12.50;99.90;;;;;;4888659;29;20808;-68
2023/03/29 13:57:55;;;;;;;4.23;3.93;;;12.60;99.90;;;;;;4892862;29;20467;-69
2023/03/29 14:00:27;;;;;;;2.37;2.17;;;12.70;99.90;;;;;;4889444;29;20566;-69
2023/03/29 14:02:56;;;;;;;2.50;2.30;;;12.70;99.90;;;;;;4895955;29;20483;-70
2023/03/29 14:05:27;;;;;;;2.40;2.20;;;12.70;99.90;;;;;;4893779;29;20527;-68
2023/03/29 14:07:55;;;;;;;4.93;2.70;;;12.80;99.90;;;;;;4895498;29;20571;-68
2023/03/29 14:10:25;;;;;;;2.50;2.20;;;12.80;99.90;;;;;;4900231;29;20486;-67
2023/03/29 14:12:53;;;;;;;2.67;2.47;;;12.80;99.90;;;;;;4890647;29;20562;-69
2023/03/29 14:15:25;;;;;;;3.07;2.73;;;12.70;99.90;;;;;;4892338;29;20494;-67
2023/03/29 14:17:56;;;;;;;2.33;2.23;;;12.70;99.90;;;;;;4892114;29;20472;-67
2023/03/29 14:20:24;;;;;;;2.47;2.37;;;12.70;99.90;;;;;;4891038;29;20834;-67
2023/03/29 14:22:51;;;;;;;2.77;2.53;;;12.70;99.90;;;;;;4890489;29;20495;-69
2023/03/29 14:25:20;;;;;;;2.43;2.23;;;12.50;99.90;;;;;;4885098;29;20484;-67
2023/03/29 14:27:47;;;;;;;7.37;4.23;;;12.40;99.90;;;;;;4877757;29;20980;-68
2023/03/29 14:30:26;;;;;;;3.40;3.20;;;12.40;99.90;;;;;;4899802;29;20511;-69
2023/03/29 14:32:53;;;;;;;3.03;2.73;;;12.50;99.90;;;;;;4891539;29;20472;-69
2023/03/29 14:35:26;;;;;;;3.47;3.17;;;12.50;99.90;;;;;;4890424;29;20981;-69
2023/03/29 14:37:53;;;;;;;4.63;2.33;;;12.50;99.90;;;;;;4888493;29;20483;-69
2023/03/29 14:40:21;;;;;;;6.70;2.83;;;12.40;99.90;;;;;;4888845;29;20483;-69
2023/03/29 14:42:49;;;;;;;2.70;2.50;;;12.30;99.90;;;;;;4893261;29;20487;-68
2023/03/29 14:45:18;;;;;;;2.57;2.47;;;12.30;99.90;;;;;;4889610;29;20479;-68
2023/03/29 14:47:47;;;;;;;4.60;3.90;;;12.30;99.90;;;;;;4889992;29;20479;-66
2023/03/29 14:50:20;;;;;;;2.87;2.67;;;12.30;99.90;;;;;;4892287;29;20949;-68
2023/03/29 14:52:48;;;;;;;2.63;2.47;;;12.30;99.90;;;;;;4893725;29;20543;-67
2023/03/29 14:55:17;;;;;;;3.80;3.40;;;12.30;99.90;;;;;;4889735;29;20474;-68
2023/03/29 14:57:44;;;;;;;5.50;4.80;;;12.30;99.90;;;;;;4888389;29;20793;-68
2023/03/29 15:00:25;;;;;;;2.67;2.57;;;12.20;99.90;;;;;;4893896;29;20483;-69
2023/03/29 15:02:57;;;;;;;3.07;2.90;;;12.20;99.90;;;;;;4892731;29;20498;-68
2023/03/29 15:05:30;;;;;;;4.73;4.30;;;12.20;99.90;;;;;;4891875;29;20471;-67
2023/03/29 15:07:57;;;;;;;5.50;5.00;;;12.10;99.90;;;;;;4890126;29;20589;-68
2023/03/29 15:10:24;;;;;;;4.57;4.17;;;12.10;99.90;;;;;;4891939;29;20475;-68
2023/03/29 15:12:52;;;;;;;5.17;4.23;;;12.10;99.90;;;;;;4886767;29;20583;-68
2023/03/29 15:15:20;;;;;;;4.33;4.07;;;12.10;99.90;;;;;;4888659;29;20476;-68
2023/03/29 15:17:48;;;;;;;5.90;3.77;;;12.10;99.90;;;;;;4897027;29;20469;-69
2023/03/29 15:20:22;;;;;;;4.03;3.00;;;12.10;99.90;;;;;;4893587;29;20471;-70
2023/03/29 15:22:55;;;;;;;3.57;3.30;;;12.20;99.90;;;;;;4897825;29;20490;-68
2023/03/29 15:25:22;;;;;;;3.10;2.90;;;12.20;99.90;;;;;;4887095;29;20484;-68
2023/03/29 15:27:54;;;;;;;4.83;4.60;;;12.20;99.90;;;;;;4885328;29;20982;-69
2023/03/29 15:30:33;;;;;;;3.50;3.23;;;12.20;99.90;;;;;;4886409;29;20567;-70
2023/03/29 15:33:08;;;;;;;3.80;3.50;;;12.20;99.90;;;;;;4887245;29;20563;-67
2023/03/29 15:35:37;;;;;;;3.53;3.10;;;12.20;99.90;;;;;;4886049;29;20494;-68
2023/03/29 15:38:05;;;;;;;2.87;2.67;;;12.20;99.90;;;;;;4889092;29;20483;-68
2023/03/29 15:40:32;;;;;;;2.93;2.80;;;12.20;99.90;;;;;;4883772;29;20472;-66
2023/03/29 15:42:59;;;;;;;3.70;3.13;;;12.20;99.90;;;;;;4894412;29;20539;-69
2023/03/29 15:45:26;;;;;;;2.80;2.60;;;12.20;99.90;;;;;;4889624;29;20475;-67
2023/03/29 15:47:53;;;;;;;3.50;3.30;;;12.20;99.90;;;;;;4887341;29;20476;-69
2023/03/29 15:50:19;;;;;;;3.87;3.27;;;12.20;99.90;;;;;;4886513;29;20567;-69
2023/03/29 15:52:47;;;;;;;3.70;3.37;;;12.20;99.90;;;;;;4888231;29;20467;-68
2023/03/29 15:55:14;;;;;;;3.00;2.90;;;12.20;99.90;;;;;;4886474;29;20864;-68
2023/03/29 15:57:45;;;;;;;4.10;3.73;;;12.10;99.90;;;;;;4900016;29;20470;-69
2023/03/29 16:00:13;;;;;;;8.37;5.60;;;12.10;99.90;;;;;;4893354;29;20483;-69
2023/03/29 16:02:40;;;;;;;11.83;3.33;;;12.10;99.90;;;;;;4891841;29;20495;-69
2023/03/29 16:05:09;;;;;;;11.80;3.07;;;12.10;99.90;;;;;;4891962;29;20471;-68
2023/03/29 16:07:36;;;;;;;6.90;3.57;;;12.00;99.90;;;;;;4893302;29;21036;-67
2023/03/29 16:10:05;;;;;;;6.33;4.17;;;12.00;99.90;;;;;;4887003;29;20479;-68
2023/03/29 16:12:34;;;;;;;2.97;2.87;;;12.00;99.90;;;;;;4893085;29;20853;-67
2023/03/29 16:15:01;;;;;;;3.47;3.27;;;12.00;99.90;;;;;;4886917;29;20628;-67
2023/03/29 16:17:27;;;;;;;3.97;3.57;;;12.00;99.90;;;;;;4885897;29;21008;-69
2023/03/29 16:19:54;;;;;;;3.90;3.00;;;12.00;99.90;;;;;;4890699;29;20791;-68
2023/03/29 16:22:21;;;;;;;2.83;2.73;;;12.00;99.90;;;;;;4885635;29;20502;-69
2023/03/29 16:24:48;;;;;;;3.90;3.70;;;12.00;99.90;;;;;;4890662;29;20566;-69
2023/03/29 16:27:16;;;;;;;3.57;3.27;;;12.00;99.90;;;;;;4879040;29;20476;-69
2023/03/29 16:29:43;;;;;;;2.17;2.00;;;11.90;99.90;;;;;;4880165;29;20467;-69
2023/03/29 16:32:10;;;;;;;4.03;3.27;;;11.90;99.90;;;;;;4894357;29;20510;-69
2023/03/29 16:34:37;;;;;;;3.50;2.97;;;11.90;99.90;;;;;;4888408;29;20586;-70
2023/03/29 16:37:04;;;;;;;3.53;3.33;;;11.90;99.90;;;;;;4894038;29;20546;-70
2023/03/29 16:39:32;;;;;;;3.60;2.67;;;11.80;99.90;;;;;;4887610;29;20494;-70
2023/03/29 16:41:58;;;;;;;3.33;2.70;;;11.80;99.90;;;;;;4890212;29;20515;-70
2023/03/29 16:44:26;;;;;;;2.87;2.67;;;11.80;99.90;;;;;;4893376;29;20562;-71
2023/03/29 16:46:56;;;;;;;3.97;2.90;;;11.80;99.90;;;;;;4903010;29;20476;-71
2023/03/29 16:49:23;;;;;;;4.80;3.47;;;11.80;99.90;;;;;;4899724;29;20570;-69
2023/03/29 16:51:50;;;;;;;2.40;2.40;;;11.80;99.90;;;;;;4896113;29;20487;-69
2023/03/29 16:54:17;;;;;;;3.50;3.20;;;11.70;99.90;;;;;;4896486;29;20525;-68
2023/03/29 16:56:44;;;;;;;4.97;2.50;;;11.70;99.90;;;;;;4896272;29;20487;-68
2023/03/29 16:59:11;;;;;;;3.07;2.77;;;11.70;99.90;;;;;;4896986;29;20478;-68
2023/03/29 17:01:39;;;;;;;2.80;2.67;;;11.70;99.90;;;;;;4896008;29;20494;-71
2023/03/29 17:04:06;;;;;;;3.53;3.30;;;11.60;99.90;;;;;;4892815;29;20491;-69
2023/03/29 17:06:32;;;;;;;2.50;2.37;;;11.60;99.90;;;;;;4891207;29;20467;-69